createdAt,value
2023-05-21T00:00:17.662Z,16.75
2023-05-21T00:05:21.709Z,16.75
2023-05-21T00:10:26.613Z,16.00
2023-05-21T00:15:29.605Z,18.00
2023-05-21T00:20:33.165Z,16.00
2023-05-21T00:25:37.402Z,16.00
2023-05-21T00:30:41.058Z,16.00
2023-05-21T00:35:43.960Z,17.60
2023-05-21T00:40:48.173Z,17.80
2023-05-21T00:45:53.742Z,16.50
2023-05-21T00:50:56.604Z,15.00
2023-05-21T00:56:00.813Z,15.00
2023-05-21T01:01:06.730Z,16.20
2023-05-21T01:06:10.305Z,12.60
2023-05-21T01:11:15.056Z,16.00
2023-05-21T01:16:18.151Z,16.00
2023-05-21T01:21:21.648Z,15.40
2023-05-21T01:26:26.243Z,15.00
2023-05-21T01:31:30.355Z,16.00
2023-05-21T01:36:35.982Z,15.60
2023-05-21T01:41:41.856Z,15.20
2023-05-21T01:46:44.736Z,12.40
2023-05-21T01:51:47.601Z,15.60
2023-05-21T01:56:51.724Z,13.80
2023-05-21T02:01:54.676Z,15.20
2023-05-21T02:06:57.569Z,15.00
2023-05-21T02:12:02.216Z,15.00
2023-05-21T02:17:05.176Z,13.60
2023-05-21T02:22:08.180Z,14.20
2023-05-21T02:27:13.621Z,14.00
2023-05-21T02:32:17.026Z,12.20
2023-05-21T02:37:20.149Z,14.00
2023-05-21T02:42:24.447Z,12.40
2023-05-21T02:47:27.587Z,11.60
2023-05-21T02:52:30.473Z,13.00
2023-05-21T02:57:34.700Z,12.00
2023-05-21T03:02:37.651Z,12.00
2023-05-21T03:07:41.837Z,12.00
2023-05-21T03:12:46.033Z,12.80
2023-05-21T03:17:48.943Z,12.60
2023-05-21T03:22:52.767Z,12.00
2023-05-21T03:27:57.105Z,12.20
2023-05-21T03:33:21.786Z,13.60
2023-05-21T03:38:24.832Z,13.60
2023-05-21T03:43:29.736Z,12.60
2023-05-21T03:48:32.655Z,12.00
2023-05-21T03:53:37.032Z,11.00
2023-05-21T03:58:41.541Z,12.00
2023-05-21T04:03:44.861Z,12.20
2023-05-21T04:08:48.084Z,12.80
2023-05-21T04:13:52.819Z,12.40
2023-05-21T04:18:56.421Z,13.60
2023-05-21T04:24:02.154Z,12.20
2023-05-21T04:29:42.486Z,10.60
2023-05-21T04:34:45.627Z,10.80
2023-05-21T04:39:48.469Z,10.40
2023-05-21T04:44:55.541Z,12.60
2023-05-21T04:49:59.338Z,11.00
2023-05-21T04:55:03.810Z,11.00
2023-05-21T05:00:10.348Z,11.00
2023-05-21T05:05:17.531Z,12.60
2023-05-21T05:10:20.409Z,11.40
2023-05-21T05:15:25.142Z,11.40
2023-05-21T05:20:28.236Z,12.20
2023-05-21T05:25:31.391Z,11.80
2023-05-21T05:30:36.356Z,10.00
2023-05-21T05:35:50.969Z,12.80
2023-05-21T05:40:54.025Z,11.60
2023-05-21T05:46:00.118Z,11.20
2023-05-21T05:51:03.128Z,10.80
2023-05-21T05:56:08.321Z,11.00
2023-05-21T06:01:14.376Z,11.00
2023-05-21T06:06:18.012Z,12.80
2023-05-21T06:11:21.584Z,11.80
2023-05-21T06:16:25.847Z,11.20
2023-05-21T06:21:29.243Z,11.20
2023-05-21T06:26:32.376Z,10.40
2023-05-21T06:31:37.516Z,9.00
2023-05-21T06:36:40.526Z,13.20
2023-05-21T06:41:43.466Z,11.40
2023-05-21T06:47:06.723Z,10.20
2023-05-21T06:52:09.633Z,11.00
2023-05-21T06:57:12.680Z,12.60
2023-05-21T07:02:17.313Z,11.60
2023-05-21T07:07:20.277Z,12.60
2023-05-21T07:12:23.639Z,23.50
2023-05-21T07:17:28.242Z,26.00
2023-05-21T07:22:31.428Z,27.00
2023-05-21T07:27:34.343Z,28.00
2023-05-21T07:32:38.814Z,24.67
2023-05-21T07:37:41.893Z,26.25
2023-05-21T07:42:45.575Z,26.75
2023-05-21T07:47:51.903Z,26.25
2023-05-21T07:52:55.394Z,25.75
2023-05-21T07:57:58.549Z,26.00
2023-05-21T08:03:07.250Z,25.75
2023-05-21T08:08:10.368Z,27.00
2023-05-21T08:13:13.436Z,26.00
2023-05-21T08:18:18.446Z,25.75
2023-05-21T08:23:22.751Z,25.50
2023-05-21T08:28:29.849Z,27.00
2023-05-21T08:33:37.064Z,26.75
2023-05-21T08:38:40.875Z,28.00
2023-05-21T08:43:57.573Z,27.33
2023-05-21T08:49:04.684Z,24.50
2023-05-21T08:54:09.092Z,25.75
2023-05-21T08:59:11.966Z,25.75
2023-05-21T09:04:21.289Z,25.00
2023-05-21T09:09:31.593Z,25.75
2023-05-21T09:14:34.490Z,26.00
2023-05-21T09:20:12.523Z,25.00
2023-05-21T09:25:22.328Z,25.00
2023-05-21T09:30:27.817Z,22.75
2023-05-21T09:35:36.161Z,25.25
2023-05-21T09:40:40.499Z,25.00
2023-05-21T09:45:51.783Z,22.25
2023-05-21T09:50:56.135Z,23.00
2023-05-21T09:55:59.016Z,24.00
2023-05-21T10:01:01.843Z,23.50
2023-05-21T10:06:06.493Z,23.50
2023-05-21T10:11:09.496Z,23.75
2023-05-21T10:16:12.758Z,23.00
2023-05-21T10:21:17.088Z,24.75
2023-05-21T10:26:21.494Z,23.25
2023-05-21T10:31:24.540Z,22.00
2023-05-21T10:36:29.590Z,23.00
2023-05-21T10:41:35.008Z,22.50
2023-05-21T10:47:08.608Z,23.00
2023-05-21T10:52:19.951Z,23.00
2023-05-21T10:57:44.448Z,24.00
2023-05-21T11:02:47.462Z,22.50
2023-05-21T11:07:56.368Z,24.75
2023-05-21T11:13:14.874Z,24.50
2023-05-21T11:18:18.222Z,23.50
2023-05-21T11:23:23.209Z,22.75
2023-05-21T11:28:35.410Z,23.00
2023-05-21T11:33:38.288Z,22.50
2023-05-21T11:38:42.483Z,21.00
2023-05-21T11:43:45.364Z,22.00
2023-05-21T11:48:48.166Z,22.50
2023-05-21T11:53:52.367Z,22.50
2023-05-21T11:58:55.872Z,20.00
2023-05-21T12:03:58.823Z,20.75
2023-05-21T12:09:04.609Z,20.50
2023-05-21T12:14:09.216Z,21.00
2023-05-21T12:19:12.134Z,20.50
2023-05-21T12:24:16.496Z,20.00
2023-05-21T12:29:20.347Z,19.60
2023-05-21T12:34:39.508Z,21.00
2023-05-21T12:39:44.693Z,19.50
2023-05-21T12:44:51.585Z,18.75
2023-05-21T12:49:56.406Z,27.50
2023-05-21T12:55:00.896Z,27.00
2023-05-21T13:00:06.523Z,34.00
2023-05-21T13:05:10.251Z,33.00
2023-05-21T13:10:14.607Z,29.33
2023-05-21T13:15:17.547Z,28.67
2023-05-21T13:20:21.856Z,28.00
2023-05-21T13:25:28.831Z,28.00
2023-05-21T13:30:33.319Z,26.00
2023-05-21T13:35:36.378Z,27.67
2023-05-21T13:40:41.434Z,26.00
2023-05-21T13:45:52.571Z,27.00
2023-05-21T13:50:55.436Z,26.67
2023-05-21T13:55:59.719Z,25.33
2023-05-21T14:01:02.920Z,24.50
2023-05-21T14:06:08.299Z,24.67
2023-05-21T14:11:12.439Z,23.00
2023-05-21T14:16:15.399Z,24.50
2023-05-21T14:21:18.466Z,22.75
2023-05-21T14:26:22.607Z,25.00
2023-05-21T14:31:25.797Z,22.75
2023-05-21T14:36:28.906Z,22.50
2023-05-21T14:41:33.170Z,23.50
2023-05-21T14:46:36.837Z,23.75
2023-05-21T14:51:40.666Z,21.00
2023-05-21T14:56:45.008Z,20.00
2023-05-21T15:01:49.455Z,21.00
2023-05-21T15:06:52.455Z,20.00
2023-05-21T15:11:56.647Z,20.25
2023-05-21T15:16:59.492Z,20.00
2023-05-21T15:22:02.728Z,20.25
2023-05-21T15:27:07.667Z,21.00
2023-05-21T15:32:10.743Z,17.00
2023-05-21T15:37:15.344Z,19.25
2023-05-21T15:42:26.267Z,19.75
2023-05-21T15:47:29.286Z,18.00
2023-05-21T15:52:32.773Z,20.00
2023-05-21T15:57:37.070Z,18.00
2023-05-21T16:02:40.923Z,19.25
2023-05-21T16:07:44.468Z,17.00
2023-05-21T16:12:48.871Z,18.25
2023-05-21T16:17:51.865Z,17.50
2023-05-21T16:22:54.779Z,17.00
2023-05-21T16:27:59.000Z,17.50
2023-05-21T16:33:01.901Z,16.75
2023-05-21T16:38:04.764Z,17.00
2023-05-21T16:43:08.967Z,18.00
2023-05-21T16:48:12.798Z,16.00
2023-05-21T16:53:16.257Z,15.20
2023-05-21T16:58:20.432Z,16.25
2023-05-21T17:03:23.498Z,16.00
2023-05-21T17:08:26.304Z,16.60
2023-05-21T17:13:30.782Z,16.00
2023-05-21T17:18:33.739Z,16.00
2023-05-21T17:23:36.577Z,15.80
2023-05-21T17:28:40.768Z,15.25
2023-05-21T17:33:43.657Z,14.40
2023-05-21T17:38:46.903Z,13.80
2023-05-21T17:43:51.333Z,15.00
2023-05-21T17:48:54.111Z,15.60
2023-05-21T17:53:57.494Z,13.00
2023-05-21T17:59:01.847Z,13.60
2023-05-21T18:04:05.138Z,14.80
2023-05-21T18:09:10.431Z,13.60
2023-05-21T18:14:14.780Z,16.00
2023-05-21T18:19:17.716Z,12.80
2023-05-21T18:24:20.688Z,16.00
2023-05-21T18:29:24.972Z,15.00
2023-05-21T18:34:27.787Z,15.00
2023-05-21T18:39:30.710Z,16.50
2023-05-21T18:44:35.017Z,16.25
2023-05-21T18:49:37.980Z,15.80
2023-05-21T18:54:40.923Z,15.20
2023-05-21T18:59:45.314Z,16.80
2023-05-21T19:04:48.744Z,14.80
2023-05-21T19:09:52.732Z,17.00
2023-05-21T19:14:56.984Z,16.00
2023-05-21T19:20:00.087Z,17.00
2023-05-21T19:25:03.013Z,15.40
2023-05-21T19:30:09.635Z,18.75
2023-05-21T19:35:12.440Z,16.00
2023-05-21T19:40:17.546Z,17.50
2023-05-21T19:45:22.276Z,16.25
2023-05-21T19:50:25.219Z,15.50
2023-05-21T19:55:28.437Z,16.40
2023-05-21T20:00:33.278Z,16.20
2023-05-21T20:05:36.163Z,16.75
2023-05-21T20:10:40.360Z,16.00
2023-05-21T20:15:44.807Z,16.00
2023-05-21T20:20:47.669Z,17.00
2023-05-21T20:25:50.992Z,17.00
2023-05-21T20:30:57.624Z,15.00
2023-05-21T20:36:00.670Z,15.20
2023-05-21T20:41:03.704Z,16.25
2023-05-21T20:46:08.051Z,16.60
2023-05-21T20:51:11.197Z,16.00
2023-05-21T20:56:16.998Z,16.00
2023-05-21T21:01:24.207Z,15.60
2023-05-21T21:06:30.023Z,16.25
2023-05-21T21:11:33.066Z,16.20
2023-05-21T21:16:37.268Z,15.75
2023-05-21T21:21:40.406Z,16.50
2023-05-21T21:26:43.623Z,16.00
2023-05-21T21:31:47.987Z,16.00
2023-05-21T21:36:51.176Z,17.00
2023-05-21T21:41:54.045Z,15.00
2023-05-21T21:46:58.255Z,16.00
2023-05-21T21:52:01.398Z,16.00
2023-05-21T21:57:04.656Z,15.00
2023-05-21T22:02:08.855Z,16.40
2023-05-21T22:07:17.781Z,16.40
2023-05-21T22:12:20.929Z,16.00
2023-05-21T22:17:25.384Z,14.80
2023-05-21T22:22:28.229Z,15.00
2023-05-21T22:27:31.032Z,14.60
2023-05-21T22:32:35.216Z,15.00
2023-05-21T22:37:38.250Z,16.00
2023-05-21T22:42:41.209Z,14.60
2023-05-21T22:47:45.393Z,16.20
2023-05-21T22:52:48.177Z,16.00
2023-05-21T22:57:50.928Z,15.80
2023-05-21T23:02:55.213Z,16.00
2023-05-21T23:07:58.067Z,15.40
2023-05-21T23:13:00.910Z,13.00
2023-05-21T23:18:05.098Z,12.40
2023-05-21T23:23:08.014Z,14.80
2023-05-21T23:28:10.817Z,14.80
2023-05-21T23:33:15.037Z,12.80
2023-05-21T23:38:17.901Z,12.80
2023-05-21T23:43:20.751Z,12.20
2023-05-21T23:48:25.523Z,13.00
2023-05-21T23:53:28.314Z,12.00
2023-05-21T23:58:31.114Z,12.40
